Aviation Digital Data Service (ADDS)

Output produced by METARs form (2135 UTC 17 November 2018)
found at http://www.aviationweather.gov/metar/data/
 
ESTA 172120Z AUTO 00000KT 9999 OVC019/// 04/02 Q1040
TAF ESTA 171102Z 1712/1716 VRB03KT 9999 BKN015 
     TEMPO 1712/1716 BKN012